Aérodrome :
LOGIN :

S'inscrire | Disclaimer

   EN    FR    IT 

 










Légende :    VFR   VFR Marginal   IFR   IFR Intensif   IFR Très Intensif
Visi : 
Plafond : 
>= 8 km
>= 3000ft
5 à 8 km
1000 à 3000 ft
1500m à 5 km
500 à 1000 ft
800 à 1500m
200 à 500 ft
< 800m
< 200 ft
Symboles :   Orages  Brouillard  Fortes neiges  Fortes précipitations  Vent > 20 kt
SIGMETs :   Divers  Orages  Givrage  Turbulence  Onde Orograph.  Cendres Volcan.







- Altitude de l'aérodrome : 46 ft
- Code IATA : SNN


EINN - Shannon

DERNIER METAR :
  • 211730Z 29023G34KT 9000 -RA FEW016 SCT024 BKN100 10/07 Q1004 NOSIG

METARs EXPIRÉS :
  • 211700Z 29024G38KT 9000 -SHRA FEW016 SCT018CB BKN050 10/08 Q1004 NOSIG
  • 211630Z 29025G38KT 9000 -SHRA SCT018CB BKN060 10/08 Q1003 NOSIG
  • 211600Z 29027G39KT 9000 -SHRA SCT018CB BKN060 11/08 Q1002 NOSIG
  • 211530Z 29031G47KT 9999 -SHRA FEW014 SCT018CB BKN050 11/09 Q1001 NOSIG
  • 211500Z 29026G44KT 9999 FEW014 FEW018CB SCT038 11/08 Q1000 NOSIG
  • 211430Z 29026G40KT 9000 -SHRA FEW014 SCT018CB BKN038 12/09 Q0999 NOSIG

TAF TAF EINN
Valide du 21 à 12h jusqu'au 22 à 12h UTC


211100Z 2112/2212 29025G40KT 9999 FEW015 SCT025
TEMPO 2112/2118 29030G47KT
TEMPO 2113/2212 -SHRA FEW020CB BKN025
BECMG 2121/2124 30018G30KT
BECMG 2202/2205 27014KT
Pas de NOTAMs connus pour ce terrain.
1 SIGMET publié pour la FIR Shannon (EISN) :
 
Turbulence forte
EISN SIGMET 05 VALID 211630/212030 EINN
EISN SHANNON FIR SEV TURB FCST ENTIRE FIR SFC/FL060 NC=



MET'MAP, la Météo Aéronautique d'un coup d'oeil ! - Copyright ORBIFLY Décembre 2007 - Disclaimer

ORBIFLY MET'MAP TEAM :

Programmation & Développement : Alexandra Zaïnal
Conception & Développement : Baudouin d'Aumeries
Co-Programmation & Développement : Marc-Olivier Méhu
Soutien technique & logistique : Manuel Goepfert

Contact : metmap@orbifly.com




SOURCES & CREDITS :

   NOAA